createdAt,value
2017-04-12T00:00:03.180Z,8.80
2017-04-12T00:01:02.337Z,8.90
2017-04-12T00:02:01.504Z,8.60
2017-04-12T00:03:00.628Z,8.10
2017-04-12T00:03:59.664Z,7.60
2017-04-12T00:04:58.820Z,7.80
2017-04-12T00:05:58.033Z,7.70
2017-04-12T00:06:57.134Z,7.90
2017-04-12T00:07:56.313Z,8.10
2017-04-12T00:08:56.160Z,7.80
2017-04-12T00:09:55.216Z,7.80
2017-04-12T00:10:54.200Z,8.00
2017-04-12T00:11:53.432Z,8.20
2017-04-12T00:12:53.276Z,8.30
2017-04-12T00:13:52.351Z,8.40
2017-04-12T00:14:51.516Z,8.10
2017-04-12T00:15:50.572Z,7.80
2017-04-12T00:16:49.764Z,7.60
2017-04-12T00:17:48.904Z,7.60
2017-04-12T00:18:48.053Z,7.50
2017-04-12T00:19:47.195Z,7.40
2017-04-12T00:20:47.033Z,7.50
2017-04-12T00:21:46.024Z,7.80
2017-04-12T00:22:45.140Z,8.10
2017-04-12T00:23:44.192Z,8.10
2017-04-12T00:24:43.296Z,8.30
2017-04-12T00:25:42.584Z,8.50
2017-04-12T00:26:41.627Z,8.60
2017-04-12T00:27:40.836Z,8.70
2017-04-12T00:28:39.897Z,8.60
2017-04-12T00:29:38.924Z,8.10
2017-04-12T00:30:38.106Z,7.80
2017-04-12T00:31:37.071Z,7.60
2017-04-12T00:32:36.856Z,7.90
2017-04-12T00:33:35.980Z,8.20
2017-04-12T00:34:35.141Z,8.20
2017-04-12T00:35:34.349Z,8.30
2017-04-12T00:36:33.509Z,8.50
2017-04-12T00:37:32.708Z,8.50
2017-04-12T00:38:31.857Z,8.20
2017-04-12T00:39:30.920Z,7.70
2017-04-12T00:40:30.728Z,7.90
2017-04-12T00:41:29.781Z,8.10
2017-04-12T00:42:28.937Z,8.40
2017-04-12T00:43:28.070Z,8.40
2017-04-12T00:44:27.093Z,8.50
2017-04-12T00:45:26.225Z,8.50
2017-04-12T00:46:25.303Z,8.60
2017-04-12T00:47:24.427Z,8.60
2017-04-12T00:48:23.503Z,8.70
2017-04-12T00:49:22.622Z,8.50
2017-04-12T00:50:22.532Z,8.50
2017-04-12T00:51:21.656Z,8.60
2017-04-12T00:52:20.884Z,8.40
2017-04-12T00:53:20.684Z,8.40
2017-04-12T00:54:20.544Z,8.50
2017-04-12T00:55:19.731Z,8.50
2017-04-12T00:56:18.772Z,8.50
2017-04-12T00:57:17.912Z,8.60
2017-04-12T00:58:17.746Z,8.50
2017-04-12T00:59:16.912Z,8.60
2017-04-12T01:00:16.017Z,8.40
2017-04-12T01:01:15.136Z,8.30
2017-04-12T01:02:14.212Z,8.20
2017-04-12T01:03:13.384Z,8.10
2017-04-12T01:04:12.624Z,8.10
2017-04-12T01:05:11.700Z,8.20
2017-04-12T01:06:10.815Z,8.00
2017-04-12T01:07:09.944Z,8.20
2017-04-12T01:08:09.116Z,8.30
2017-04-12T01:09:08.984Z,8.30
2017-04-12T01:10:08.105Z,8.30
2017-04-12T01:11:07.262Z,8.50
2017-04-12T01:12:07.030Z,8.20
2017-04-12T01:13:06.156Z,8.10
2017-04-12T01:14:05.252Z,8.20
2017-04-12T01:15:04.356Z,8.30
2017-04-12T01:16:03.454Z,8.20
2017-04-12T01:17:02.564Z,8.20
2017-04-12T01:18:01.635Z,8.20
2017-04-12T01:19:00.739Z,8.30
2017-04-12T01:19:59.913Z,8.40
2017-04-12T01:20:58.948Z,8.60
2017-04-12T01:21:58.079Z,8.70
2017-04-12T01:22:57.272Z,8.70
2017-04-12T01:23:56.312Z,8.60
2017-04-12T01:24:55.393Z,8.50
2017-04-12T01:25:54.620Z,8.30
2017-04-12T01:26:53.779Z,8.10
2017-04-12T01:27:52.898Z,8.00
2017-04-12T01:28:52.024Z,8.00
2017-04-12T01:29:51.934Z,7.90
2017-04-12T01:30:51.111Z,7.90
2017-04-12T01:31:50.299Z,7.90
2017-04-12T01:32:49.479Z,7.90
2017-04-12T01:33:48.568Z,8.00
2017-04-12T01:34:47.691Z,8.10
2017-04-12T01:35:46.794Z,8.00
2017-04-12T01:36:46.604Z,8.20
2017-04-12T01:37:45.709Z,8.50
2017-04-12T01:38:44.918Z,8.80
2017-04-12T01:39:44.055Z,9.00
2017-04-12T01:40:43.244Z,9.00
2017-04-12T01:41:42.428Z,9.00
2017-04-12T01:42:41.591Z,8.80
2017-04-12T01:43:41.407Z,8.40
2017-04-12T01:44:40.507Z,8.30
2017-04-12T01:45:39.629Z,8.00
2017-04-12T01:46:39.451Z,7.80
2017-04-12T01:47:38.567Z,8.00
2017-04-12T01:48:37.628Z,8.10
2017-04-12T01:49:36.738Z,8.30
2017-04-12T01:50:35.804Z,8.30
2017-04-12T01:51:34.944Z,8.40
2017-04-12T01:52:34.029Z,8.30
2017-04-12T01:53:33.203Z,8.30
2017-04-12T01:54:32.392Z,8.00
2017-04-12T01:55:31.475Z,7.70
2017-04-12T01:56:30.534Z,7.90
2017-04-12T01:57:29.599Z,8.20
2017-04-12T01:58:29.493Z,8.30
2017-04-12T01:59:29.316Z,8.40
2017-04-12T02:00:28.312Z,8.40
2017-04-12T02:01:27.468Z,8.50
2017-04-12T02:02:26.734Z,8.30
2017-04-12T02:03:26.628Z,8.20
2017-04-12T02:04:26.487Z,8.40
2017-04-12T02:05:25.540Z,8.50
2017-04-12T02:06:24.581Z,8.60
2017-04-12T02:07:24.412Z,8.70
2017-04-12T02:08:23.506Z,8.70
2017-04-12T02:09:22.635Z,8.60
2017-04-12T02:10:22.500Z,8.60
2017-04-12T02:11:21.615Z,8.60
2017-04-12T02:12:20.729Z,8.70
2017-04-12T02:13:19.881Z,8.70
2017-04-12T02:14:19.027Z,8.80
2017-04-12T02:15:18.168Z,8.50
2017-04-12T02:16:17.289Z,8.50
2017-04-12T02:17:16.424Z,8.60
2017-04-12T02:18:15.580Z,8.60
2017-04-12T02:19:15.419Z,8.40
2017-04-12T02:20:14.500Z,8.30
2017-04-12T02:21:13.601Z,7.80
2017-04-12T02:22:12.848Z,7.60
2017-04-12T02:23:11.928Z,7.60
2017-04-12T02:24:11.079Z,7.60
2017-04-12T02:25:10.280Z,7.70
2017-04-12T02:26:09.389Z,7.80
2017-04-12T02:27:08.612Z,7.90
2017-04-12T02:28:08.526Z,7.80
2017-04-12T02:29:07.692Z,7.60
2017-04-12T02:30:06.820Z,7.70
2017-04-12T02:31:05.972Z,7.90
2017-04-12T02:32:05.472Z,8.10
2017-04-12T02:33:04.624Z,8.10
2017-04-12T02:34:04.541Z,8.10
2017-04-12T02:35:03.644Z,8.20
2017-04-12T02:36:02.835Z,8.30
2017-04-12T02:37:01.935Z,8.30
2017-04-12T02:38:01.144Z,8.20
2017-04-12T02:39:01.109Z,8.00
2017-04-12T02:40:00.191Z,8.00
2017-04-12T02:40:59.339Z,8.10
2017-04-12T02:41:58.308Z,8.00
2017-04-12T02:42:57.399Z,7.70
2017-04-12T02:43:56.584Z,7.70
2017-04-12T02:44:55.748Z,7.70
2017-04-12T02:45:54.890Z,7.60
2017-04-12T02:46:54.712Z,7.60
2017-04-12T02:47:53.861Z,7.70
2017-04-12T02:48:52.988Z,7.70
2017-04-12T02:49:52.156Z,7.80
2017-04-12T02:50:51.231Z,7.90
2017-04-12T02:51:50.412Z,8.00
2017-04-12T02:52:49.588Z,8.00
2017-04-12T02:53:49.440Z,7.80
2017-04-12T02:54:48.511Z,7.80
2017-04-12T02:55:47.577Z,7.40
2017-04-12T02:56:46.732Z,7.20
2017-04-12T02:57:45.795Z,7.40
2017-04-12T02:58:44.996Z,7.50
2017-04-12T02:59:44.147Z,7.70
2017-04-12T03:00:43.328Z,7.20
2017-04-12T03:01:42.644Z,7.00
2017-04-12T03:02:41.775Z,6.80
2017-04-12T03:03:40.866Z,6.80
2017-04-12T03:04:39.992Z,7.10
2017-04-12T03:05:39.220Z,7.20
2017-04-12T03:06:38.370Z,7.30
2017-04-12T03:07:37.540Z,7.40
2017-04-12T03:08:36.651Z,7.60
2017-04-12T03:09:35.753Z,7.40
2017-04-12T03:10:35.650Z,7.40
2017-04-12T03:11:34.803Z,7.50
2017-04-12T03:12:34.173Z,7.60
2017-04-12T03:13:33.364Z,7.70
2017-04-12T03:14:32.505Z,7.60
2017-04-12T03:15:31.677Z,7.50
2017-04-12T03:16:30.807Z,7.30
2017-04-12T03:17:29.999Z,6.90
2017-04-12T03:18:29.856Z,6.80
2017-04-12T03:19:29.065Z,6.80
2017-04-12T03:20:28.234Z,6.50
2017-04-12T03:21:27.324Z,6.70
2017-04-12T03:22:26.443Z,6.50
2017-04-12T03:23:25.613Z,6.70
2017-04-12T03:24:25.568Z,6.60
2017-04-12T03:25:24.603Z,6.60
2017-04-12T03:26:23.677Z,6.90
2017-04-12T03:27:22.850Z,7.10
2017-04-12T03:28:22.007Z,7.40
2017-04-12T03:29:21.173Z,7.50
2017-04-12T03:30:20.294Z,7.70
2017-04-12T03:31:20.232Z,7.70
2017-04-12T03:32:19.440Z,7.80
2017-04-12T03:33:18.556Z,7.90
2017-04-12T03:34:17.664Z,8.00
2017-04-12T03:35:16.779Z,8.00
2017-04-12T03:36:15.904Z,7.90
2017-04-12T03:37:15.710Z,7.90
2017-04-12T03:38:14.788Z,7.90
2017-04-12T03:39:13.948Z,8.00
2017-04-12T03:40:13.116Z,7.70
2017-04-12T03:41:12.335Z,7.70
2017-04-12T03:42:11.602Z,7.90
2017-04-12T03:43:11.440Z,7.90
2017-04-12T03:44:10.586Z,8.00
2017-04-12T03:45:09.692Z,8.00
2017-04-12T03:46:08.841Z,8.00
2017-04-12T03:47:07.998Z,8.10
2017-04-12T03:48:07.802Z,7.50
2017-04-12T03:49:06.889Z,6.80
2017-04-12T03:50:06.117Z,6.30
2017-04-12T03:51:05.204Z,6.10
2017-04-12T03:52:04.342Z,6.10
2017-04-12T03:53:04.199Z,6.40
2017-04-12T03:54:03.362Z,6.70
2017-04-12T03:55:02.598Z,6.80
2017-04-12T03:56:02.571Z,7.00
2017-04-12T03:57:01.645Z,7.10
2017-04-12T03:58:00.863Z,7.30
2017-04-12T03:58:59.981Z,7.10
2017-04-12T03:59:59.074Z,7.30
2017-04-12T04:00:58.208Z,7.40
2017-04-12T04:01:57.272Z,7.40
2017-04-12T04:02:56.684Z,7.50
2017-04-12T04:03:55.801Z,7.50
2017-04-12T04:04:54.934Z,7.40
2017-04-12T04:05:54.108Z,7.40
2017-04-12T04:06:53.248Z,7.40
2017-04-12T04:07:52.332Z,7.40
2017-04-12T04:08:51.583Z,7.40
2017-04-12T04:09:50.825Z,7.10
2017-04-12T04:10:49.092Z,7.00
2017-04-12T04:11:48.276Z,6.80
2017-04-12T04:12:47.435Z,7.00
2017-04-12T04:13:45.753Z,7.00
2017-04-12T04:14:44.899Z,7.00
2017-04-12T04:15:43.992Z,7.10
2017-04-12T04:16:45.848Z,6.70
2017-04-12T04:17:44.980Z,6.60
2017-04-12T04:18:44.899Z,6.80
2017-04-12T04:19:43.869Z,7.10
2017-04-12T04:20:42.988Z,7.20
2017-04-12T04:21:42.114Z,7.20
2017-04-12T04:22:41.230Z,7.30
2017-04-12T04:23:40.272Z,7.30
2017-04-12T04:24:39.300Z,7.30
2017-04-12T04:25:38.396Z,7.30
2017-04-12T04:26:37.492Z,7.10
2017-04-12T04:28:36.267Z,6.90
2017-04-12T04:29:35.468Z,6.60
2017-04-12T04:30:34.607Z,6.60
2017-04-12T04:31:33.808Z,6.70
2017-04-12T04:32:32.908Z,6.60
2017-04-12T04:33:31.979Z,6.70
2017-04-12T04:34:31.399Z,6.80
2017-04-12T04:35:30.516Z,6.70
2017-04-12T04:36:29.613Z,6.70
2017-04-12T04:37:28.031Z,6.70
2017-04-12T04:38:27.125Z,6.70
2017-04-12T04:39:25.507Z,6.60
2017-04-12T04:40:23.967Z,6.70
2017-04-12T04:41:23.092Z,6.60
2017-04-12T04:42:22.153Z,6.60
2017-04-12T04:43:21.372Z,6.50
2017-04-12T04:44:20.468Z,6.50
2017-04-12T04:45:19.910Z,6.60
2017-04-12T04:46:19.066Z,6.70
2017-04-12T04:47:18.075Z,6.60
2017-04-12T04:48:17.216Z,6.70
2017-04-12T04:49:16.259Z,6.80
2017-04-12T04:50:14.608Z,6.80
2017-04-12T04:51:13.805Z,6.90
2017-04-12T04:52:12.956Z,7.00
2017-04-12T04:53:12.140Z,7.30
2017-04-12T04:54:11.228Z,7.30
2017-04-12T04:55:10.429Z,7.10
2017-04-12T04:56:09.622Z,6.90
2017-04-12T04:57:08.790Z,7.00
2017-04-12T04:58:08.037Z,6.90
2017-04-12T04:59:07.892Z,6.90
2017-04-12T05:00:07.081Z,7.20
2017-04-12T05:01:06.186Z,7.20
2017-04-12T05:02:05.466Z,7.40
2017-04-12T05:03:05.376Z,7.30
2017-04-12T05:04:04.541Z,7.30
2017-04-12T05:05:04.418Z,7.50
2017-04-12T05:06:03.573Z,7.60
2017-04-12T05:07:02.724Z,7.60
2017-04-12T05:08:01.848Z,7.60
2017-04-12T05:09:01.019Z,7.70
2017-04-12T05:10:00.101Z,7.70
2017-04-12T05:10:59.256Z,7.70
2017-04-12T05:11:58.251Z,7.90
2017-04-12T05:12:57.304Z,7.90
2017-04-12T05:13:56.447Z,7.50
2017-04-12T05:14:55.623Z,7.30
2017-04-12T05:15:55.588Z,7.10
2017-04-12T05:16:54.720Z,7.20
2017-04-12T05:17:54.616Z,7.30
2017-04-12T05:18:53.766Z,7.60
2017-04-12T05:19:52.877Z,7.60
2017-04-12T05:20:52.639Z,7.30
2017-04-12T05:21:51.744Z,7.30
2017-04-12T05:22:51.677Z,7.10
2017-04-12T05:23:50.791Z,7.40
2017-04-12T05:24:49.966Z,7.30
2017-04-12T05:25:49.137Z,7.40
2017-04-12T05:26:48.299Z,7.40
2017-04-12T05:27:47.497Z,7.70
2017-04-12T05:28:46.616Z,7.80
2017-04-12T05:29:45.728Z,7.70
2017-04-12T05:30:44.764Z,7.70
2017-04-12T05:31:43.916Z,7.70
2017-04-12T05:32:42.972Z,7.70
2017-04-12T05:33:42.173Z,7.80
2017-04-12T05:34:41.228Z,7.90
2017-04-12T05:35:40.308Z,8.00
2017-04-12T05:36:39.431Z,8.20
2017-04-12T05:37:38.468Z,8.30
2017-04-12T05:38:37.672Z,8.40
2017-04-12T05:39:36.811Z,8.50
2017-04-12T05:40:36.732Z,8.60
2017-04-12T05:41:35.864Z,8.70
2017-04-12T05:42:35.150Z,8.70
2017-04-12T05:43:34.305Z,8.80
2017-04-12T05:44:33.400Z,9.10
2017-04-12T05:45:32.493Z,8.90
2017-04-12T05:46:31.646Z,8.70
2017-04-12T05:47:30.783Z,8.80
2017-04-12T05:48:29.888Z,8.50
2017-04-12T05:49:29.000Z,8.20
2017-04-12T05:50:28.019Z,8.10
2017-04-12T05:51:27.057Z,8.10
2017-04-12T05:52:26.145Z,8.20
2017-04-12T05:53:25.311Z,8.50
2017-04-12T05:54:24.413Z,8.60
2017-04-12T05:55:23.457Z,8.60
2017-04-12T05:56:22.548Z,8.60
2017-04-12T05:57:21.704Z,8.60
2017-04-12T05:58:20.800Z,8.50
2017-04-12T05:59:19.981Z,8.40
2017-04-12T06:00:19.300Z,8.50
2017-04-12T06:01:19.104Z,8.60
2017-04-12T06:02:18.193Z,8.80
2017-04-12T06:03:17.424Z,8.70
2017-04-12T06:04:16.577Z,8.50
2017-04-12T06:05:15.784Z,8.40
2017-04-12T06:06:14.962Z,8.40
2017-04-12T06:07:14.051Z,8.40
2017-04-12T06:08:13.180Z,8.10
2017-04-12T06:09:12.276Z,7.80
2017-04-12T06:10:11.327Z,8.00
2017-04-12T06:11:11.225Z,8.00
2017-04-12T06:12:10.304Z,8.00
2017-04-12T06:13:10.105Z,8.20
2017-04-12T06:14:09.183Z,8.40
2017-04-12T06:15:08.355Z,8.60
2017-04-12T06:16:08.184Z,8.80
2017-04-12T06:17:07.240Z,8.90
2017-04-12T06:18:06.340Z,9.00
2017-04-12T06:19:05.431Z,9.00
2017-04-12T06:20:04.869Z,8.90
2017-04-12T06:21:03.880Z,8.90
2017-04-12T06:22:03.028Z,8.60
2017-04-12T06:23:03.012Z,8.50
2017-04-12T06:24:02.049Z,8.70
2017-04-12T06:25:01.212Z,8.80
2017-04-12T06:26:00.282Z,9.10
2017-04-12T06:26:59.461Z,9.30
2017-04-12T06:27:58.624Z,9.40
2017-04-12T06:28:58.545Z,9.40
2017-04-12T06:29:57.600Z,9.50
2017-04-12T06:30:56.695Z,9.70
2017-04-12T06:31:55.819Z,9.50
2017-04-12T06:32:55.383Z,9.30
2017-04-12T06:33:54.564Z,9.10
2017-04-12T06:34:53.676Z,9.00
2017-04-12T06:35:53.472Z,9.00
2017-04-12T06:36:52.596Z,9.00
2017-04-12T06:37:51.657Z,9.00
2017-04-12T06:38:50.790Z,9.00
2017-04-12T06:39:49.836Z,8.90
2017-04-12T06:40:48.925Z,8.90
2017-04-12T06:41:48.036Z,9.00
2017-04-12T06:42:47.205Z,9.00
2017-04-12T06:43:46.374Z,9.00
2017-04-12T06:44:45.417Z,9.00
2017-04-12T06:45:44.568Z,9.00
2017-04-12T06:46:43.601Z,9.00
2017-04-12T06:47:42.803Z,9.00
2017-04-12T06:48:42.005Z,9.00
2017-04-12T06:49:41.204Z,9.00
2017-04-12T06:50:39.571Z,9.00
2017-04-12T06:51:38.740Z,8.90
2017-04-12T06:52:37.889Z,8.90
2017-04-12T06:53:36.996Z,8.90
2017-04-12T06:54:36.132Z,9.00
2017-04-12T06:55:35.332Z,9.10
2017-04-12T06:56:34.432Z,9.10
2017-04-12T06:57:33.676Z,9.10
2017-04-12T06:58:32.813Z,9.10
2017-04-12T06:59:31.213Z,9.10
2017-04-12T07:00:30.335Z,9.10
2017-04-12T07:01:29.472Z,9.20
2017-04-12T07:02:28.571Z,9.20
2017-04-12T07:03:27.732Z,9.20
2017-04-12T07:04:26.808Z,9.30
2017-04-12T07:05:25.868Z,9.30
2017-04-12T07:06:24.912Z,9.30
2017-04-12T07:07:23.956Z,9.40
2017-04-12T07:08:23.053Z,9.50
2017-04-12T07:09:22.151Z,9.50
2017-04-12T07:10:21.308Z,9.50
2017-04-12T07:11:20.440Z,9.50
2017-04-12T07:12:20.267Z,9.50
2017-04-12T07:13:19.336Z,9.50
2017-04-12T07:14:18.433Z,9.50
2017-04-12T07:15:17.580Z,9.50
2017-04-12T07:16:17.435Z,9.50
2017-04-12T07:17:16.628Z,9.50
2017-04-12T07:18:15.752Z,9.60
2017-04-12T07:19:14.823Z,9.70
2017-04-12T07:20:13.993Z,9.70
2017-04-12T07:21:13.844Z,9.70
2017-04-12T07:22:13.668Z,9.80
2017-04-12T07:23:12.792Z,9.80
2017-04-12T07:24:11.841Z,9.80
2017-04-12T07:25:17.712Z,9.70
2017-04-12T07:26:16.904Z,9.70
2017-04-12T07:27:16.190Z,9.70
2017-04-12T07:28:15.558Z,9.70
2017-04-12T07:29:14.703Z,9.70
2017-04-12T07:30:14.755Z,9.70
2017-04-12T07:31:13.804Z,9.70
2017-04-12T07:32:12.908Z,9.70
2017-04-12T07:33:12.037Z,9.70
2017-04-12T07:34:11.109Z,9.70
2017-04-12T07:35:10.225Z,9.70
2017-04-12T07:36:09.248Z,9.70
2017-04-12T07:37:08.273Z,9.70
2017-04-12T07:38:08.105Z,9.80
2017-04-12T07:39:07.181Z,9.80
2017-04-12T07:40:06.236Z,9.80
2017-04-12T07:41:05.621Z,9.90
2017-04-12T07:42:05.186Z,10.00
2017-04-12T07:43:04.297Z,10.00
2017-04-12T07:44:03.416Z,10.10
2017-04-12T07:45:02.516Z,10.10
2017-04-12T07:46:01.753Z,10.20
2017-04-12T07:47:00.911Z,10.30
2017-04-12T07:48:00.131Z,10.30
2017-04-12T07:48:59.326Z,10.30
2017-04-12T07:49:58.443Z,10.30
2017-04-12T07:50:58.288Z,10.30
2017-04-12T07:51:58.456Z,10.30
2017-04-12T07:52:57.524Z,10.40
2017-04-12T07:53:56.635Z,10.40
2017-04-12T07:54:55.703Z,10.40
2017-04-12T07:55:54.820Z,10.50
2017-04-12T07:56:53.956Z,10.50
2017-04-12T07:57:53.051Z,10.60
2017-04-12T07:58:52.137Z,10.60
2017-04-12T07:59:51.256Z,10.70
2017-04-12T08:00:50.321Z,10.80
2017-04-12T08:01:49.545Z,10.90
2017-04-12T08:02:48.556Z,11.00
2017-04-12T08:03:47.641Z,11.10
2017-04-12T08:04:46.831Z,11.20
2017-04-12T08:05:45.884Z,11.30
2017-04-12T08:06:45.045Z,11.40
2017-04-12T08:07:44.171Z,11.50
2017-04-12T08:08:44.045Z,11.50
2017-04-12T08:09:43.204Z,11.60
2017-04-12T08:10:42.277Z,11.60
2017-04-12T08:11:41.315Z,11.70
2017-04-12T08:12:40.484Z,11.70
2017-04-12T08:13:39.632Z,11.80
2017-04-12T08:14:38.728Z,11.80
2017-04-12T08:15:37.721Z,11.80
2017-04-12T08:16:36.747Z,11.90
2017-04-12T08:17:35.403Z,11.90
2017-04-12T08:18:34.662Z,11.90
2017-04-12T08:19:33.220Z,11.90
2017-04-12T08:20:32.366Z,11.90
2017-04-12T08:21:31.532Z,11.90
2017-04-12T08:22:30.640Z,12.00
2017-04-12T08:23:30.044Z,12.00
2017-04-12T08:24:29.080Z,12.10
2017-04-12T08:25:28.230Z,12.00
2017-04-12T08:26:26.560Z,12.00
2017-04-12T08:27:25.664Z,12.00
2017-04-12T08:28:24.755Z,12.00
2017-04-12T08:29:23.142Z,12.00
2017-04-12T08:30:22.408Z,12.00
2017-04-12T08:31:21.590Z,12.10
2017-04-12T08:32:19.914Z,12.00
2017-04-12T08:33:18.996Z,12.30
2017-04-12T08:34:18.288Z,12.30
2017-04-12T08:35:17.508Z,12.30
2017-04-12T08:36:16.643Z,12.40
2017-04-12T08:37:15.676Z,12.50
2017-04-12T08:38:14.806Z,12.50
2017-04-12T08:39:13.941Z,12.60
2017-04-12T08:40:13.017Z,12.60
2017-04-12T08:41:12.127Z,12.60
2017-04-12T08:42:11.312Z,12.60
2017-04-12T08:43:10.472Z,12.60
2017-04-12T08:44:09.601Z,12.60
2017-04-12T08:45:08.768Z,12.60
2017-04-12T08:46:07.834Z,12.60
2017-04-12T08:47:06.945Z,12.70
2017-04-12T08:48:06.012Z,12.70
2017-04-12T08:49:04.343Z,12.70
2017-04-12T08:50:03.584Z,12.70
2017-04-12T08:51:02.643Z,12.70
2017-04-12T08:52:01.815Z,12.80
2017-04-12T08:53:00.262Z,12.80
2017-04-12T08:53:59.370Z,12.90
2017-04-12T08:54:57.827Z,12.80
2017-04-12T08:55:56.780Z,12.90
2017-04-12T08:56:55.230Z,12.90
2017-04-12T08:57:55.114Z,13.00
2017-04-12T08:58:54.145Z,13.00
2017-04-12T08:59:52.491Z,13.00
2017-04-12T09:00:50.969Z,13.00
2017-04-12T09:01:49.308Z,13.10
2017-04-12T09:02:47.690Z,13.10
2017-04-12T09:03:45.991Z,13.20
2017-04-12T09:04:45.084Z,13.30
2017-04-12T09:05:44.084Z,13.40
2017-04-12T09:06:43.208Z,13.40
2017-04-12T09:07:42.316Z,13.60
2017-04-12T09:08:41.379Z,13.60
2017-04-12T09:09:40.448Z,13.70
2017-04-12T09:10:39.572Z,13.70
2017-04-12T09:11:37.832Z,13.70
2017-04-12T09:12:36.998Z,13.80
2017-04-12T09:13:36.036Z,13.80
2017-04-12T09:14:35.140Z,13.90
2017-04-12T09:15:34.200Z,13.90
2017-04-12T09:16:33.283Z,13.90
2017-04-12T09:17:32.735Z,14.00
2017-04-12T09:18:32.011Z,14.00
2017-04-12T09:19:30.396Z,14.00
2017-04-12T09:20:28.800Z,14.00
2017-04-12T09:21:27.923Z,14.00
2017-04-12T09:22:26.357Z,14.00
2017-04-12T09:23:24.676Z,14.00
2017-04-12T09:24:23.711Z,14.00
2017-04-12T09:25:22.865Z,14.00
2017-04-12T09:26:22.132Z,14.10
2017-04-12T09:27:21.216Z,14.10
2017-04-12T09:28:20.335Z,14.20
2017-04-12T09:29:19.416Z,14.20
2017-04-12T09:30:18.542Z,14.20
2017-04-12T09:31:17.660Z,14.30
2017-04-12T09:32:16.765Z,14.30
2017-04-12T09:33:15.887Z,14.30
2017-04-12T09:34:14.995Z,14.30
2017-04-12T09:35:14.092Z,14.40
2017-04-12T09:36:13.235Z,14.40
2017-04-12T09:37:12.255Z,14.40
2017-04-12T09:38:11.620Z,14.40
2017-04-12T09:39:10.765Z,14.40
2017-04-12T09:40:09.943Z,14.40
2017-04-12T09:41:09.165Z,14.40
2017-04-12T09:42:08.298Z,14.50
2017-04-12T09:43:07.424Z,14.40
2017-04-12T09:44:06.576Z,14.50
2017-04-12T09:45:05.700Z,14.40
2017-04-12T09:46:04.115Z,14.50
2017-04-12T09:47:03.321Z,14.50
2017-04-12T09:48:01.811Z,14.50
2017-04-12T09:49:00.920Z,14.50
2017-04-12T09:49:59.319Z,14.40
2017-04-12T09:50:58.343Z,14.50
2017-04-12T09:51:57.537Z,14.50
2017-04-12T09:52:56.025Z,14.50
2017-04-12T09:53:55.143Z,14.60
2017-04-12T09:54:53.560Z,14.50
2017-04-12T09:55:52.616Z,14.70
2017-04-12T09:56:50.909Z,14.70
2017-04-12T09:57:50.027Z,14.70
2017-04-12T09:58:48.408Z,14.70
2017-04-12T09:59:46.844Z,14.70
2017-04-12T10:00:46.029Z,14.70
2017-04-12T10:01:45.172Z,14.70
2017-04-12T10:02:44.333Z,14.70
2017-04-12T10:03:43.456Z,14.80
2017-04-12T10:04:42.690Z,14.80
2017-04-12T10:05:41.684Z,14.80
2017-04-12T10:06:40.904Z,14.80
2017-04-12T10:07:40.027Z,14.80
2017-04-12T10:08:39.167Z,14.80
2017-04-12T10:09:38.308Z,14.80
2017-04-12T10:10:37.352Z,14.90
2017-04-12T10:11:36.430Z,14.90
2017-04-12T10:12:35.528Z,14.90
2017-04-12T10:13:34.623Z,15.00
2017-04-12T10:14:33.688Z,15.00
2017-04-12T10:15:32.046Z,15.00
2017-04-12T10:16:31.024Z,15.00
2017-04-12T10:17:30.029Z,15.10
2017-04-12T10:18:29.080Z,15.10
2017-04-12T10:19:28.572Z,15.10
2017-04-12T10:20:27.767Z,15.10
2017-04-12T10:21:26.875Z,15.10
2017-04-12T10:22:25.932Z,15.10
2017-04-12T10:23:25.007Z,15.10
2017-04-12T10:24:24.128Z,15.10
2017-04-12T10:25:23.212Z,15.10
2017-04-12T10:26:21.568Z,15.00
2017-04-12T10:27:20.405Z,15.10
2017-04-12T10:28:19.464Z,15.00
2017-04-12T10:29:19.325Z,15.00
2017-04-12T10:30:18.533Z,15.10
2017-04-12T10:31:16.880Z,15.10
2017-04-12T10:32:15.991Z,15.10
2017-04-12T10:33:15.836Z,15.10
2017-04-12T10:34:14.990Z,15.10
2017-04-12T10:35:14.027Z,15.10
2017-04-12T10:36:12.425Z,15.10
2017-04-12T10:37:11.443Z,15.20
2017-04-12T10:38:09.781Z,15.10
2017-04-12T10:39:08.856Z,15.10
2017-04-12T10:40:07.970Z,15.10
2017-04-12T10:41:07.088Z,15.20
2017-04-12T10:42:06.224Z,15.20
2017-04-12T10:43:05.361Z,15.30
2017-04-12T10:44:04.464Z,15.30
2017-04-12T10:45:04.452Z,15.40
2017-04-12T10:46:03.620Z,15.50
2017-04-12T10:47:02.769Z,15.60
2017-04-12T10:48:01.768Z,15.60
2017-04-12T10:49:00.768Z,15.70
2017-04-12T10:49:59.767Z,15.70
2017-04-12T10:50:58.916Z,15.70
2017-04-12T10:51:58.015Z,15.90
2017-04-12T10:52:57.184Z,16.00
2017-04-12T10:53:56.415Z,16.10
2017-04-12T10:54:55.471Z,16.20
2017-04-12T10:55:54.544Z,16.30
2017-04-12T10:56:53.687Z,16.40
2017-04-12T10:57:52.791Z,16.50
2017-04-12T10:58:51.903Z,16.50
2017-04-12T10:59:51.055Z,16.60
2017-04-12T11:00:50.268Z,16.70
2017-04-12T11:01:48.592Z,16.70
2017-04-12T11:02:47.839Z,16.80
2017-04-12T11:03:46.943Z,16.80
2017-04-12T11:04:46.081Z,16.80
2017-04-12T11:05:45.149Z,16.80
2017-04-12T11:06:44.249Z,16.80
2017-04-12T11:07:42.619Z,16.80
2017-04-12T11:08:42.351Z,16.70
2017-04-12T11:09:41.404Z,16.70
2017-04-12T11:10:40.555Z,16.60
2017-04-12T11:11:39.039Z,16.60
2017-04-12T11:12:38.124Z,16.60
2017-04-12T11:13:37.244Z,16.60
2017-04-12T11:14:36.335Z,16.70
2017-04-12T11:15:35.468Z,16.70
2017-04-12T11:16:34.536Z,16.70
2017-04-12T11:17:34.636Z,16.80
2017-04-12T11:18:33.723Z,16.80
2017-04-12T11:19:33.263Z,16.90
2017-04-12T11:20:33.220Z,16.90
2017-04-12T11:21:32.723Z,16.90
2017-04-12T11:22:31.858Z,16.90
2017-04-12T11:23:30.344Z,16.90
2017-04-12T11:24:29.331Z,16.90
2017-04-12T11:25:28.400Z,16.80
2017-04-12T11:26:27.407Z,16.80
2017-04-12T11:27:26.399Z,16.90
2017-04-12T11:28:25.506Z,16.90
2017-04-12T11:29:24.482Z,16.80
2017-04-12T11:30:23.458Z,16.80
2017-04-12T11:31:21.672Z,16.80
2017-04-12T11:32:21.518Z,16.70
2017-04-12T11:33:21.331Z,16.70
2017-04-12T11:34:20.469Z,16.70
2017-04-12T11:35:19.466Z,16.70
2017-04-12T11:36:18.552Z,16.70
2017-04-12T11:37:17.676Z,16.70
2017-04-12T11:38:16.724Z,16.70
2017-04-12T11:39:15.807Z,16.80
2017-04-12T11:40:14.868Z,16.80
2017-04-12T11:41:14.703Z,16.80
2017-04-12T11:42:13.864Z,16.90
2017-04-12T11:43:12.244Z,16.80
2017-04-12T11:44:11.380Z,16.90
2017-04-12T11:45:09.812Z,16.90
2017-04-12T11:46:08.992Z,17.00
2017-04-12T11:47:08.108Z,17.20
2017-04-12T11:48:06.484Z,17.10
2017-04-12T11:49:06.257Z,17.50
2017-04-12T11:50:04.664Z,17.50
2017-04-12T11:51:03.702Z,17.80
2017-04-12T11:52:02.052Z,17.80
2017-04-12T11:53:01.172Z,18.10
2017-04-12T11:54:00.296Z,18.40
2017-04-12T11:54:59.284Z,18.60
2017-04-12T11:55:58.435Z,18.80
2017-04-12T11:56:57.596Z,18.90
2017-04-12T11:57:56.589Z,19.10
2017-04-12T11:58:54.900Z,19.10
2017-04-12T11:59:54.699Z,19.20
2017-04-12T12:00:53.854Z,19.30
2017-04-12T12:01:52.995Z,19.30
2017-04-12T12:02:52.164Z,19.30
2017-04-12T12:03:51.264Z,19.30
2017-04-12T12:04:50.400Z,19.20
2017-04-12T12:05:49.512Z,19.20
2017-04-12T12:06:48.519Z,19.20
2017-04-12T12:07:46.956Z,19.20
2017-04-12T12:08:46.099Z,19.10
2017-04-12T12:09:45.910Z,19.10
2017-04-12T12:10:44.907Z,19.10
2017-04-12T12:11:44.072Z,19.00
2017-04-12T12:12:43.283Z,19.10
2017-04-12T12:13:42.523Z,19.00
2017-04-12T12:14:40.824Z,19.00
2017-04-12T12:15:39.920Z,19.00
2017-04-12T12:16:39.069Z,19.00
2017-04-12T12:17:38.160Z,19.00
2017-04-12T12:18:37.132Z,18.90
2017-04-12T12:19:36.276Z,18.90
2017-04-12T12:20:34.676Z,18.90
2017-04-12T12:21:33.768Z,18.90
2017-04-12T12:22:32.052Z,18.90
2017-04-12T12:23:30.576Z,18.90
2017-04-12T12:24:29.631Z,18.70
2017-04-12T12:25:28.764Z,18.60
2017-04-12T12:26:28.560Z,18.70
2017-04-12T12:27:27.121Z,18.70
2017-04-12T12:28:26.107Z,18.60
2017-04-12T12:29:25.291Z,18.60
2017-04-12T12:30:24.435Z,18.50
2017-04-12T12:31:23.551Z,18.40
2017-04-12T12:32:22.709Z,18.30
2017-04-12T12:33:21.041Z,18.30
2017-04-12T12:34:20.155Z,18.40
2017-04-12T12:35:18.391Z,18.40
2017-04-12T12:36:17.440Z,18.30
2017-04-12T12:37:16.485Z,18.30
2017-04-12T12:38:15.587Z,18.30
2017-04-12T12:39:15.167Z,18.30
2017-04-12T12:40:14.304Z,18.30
2017-04-12T12:41:13.410Z,18.20
2017-04-12T12:42:12.755Z,18.20
2017-04-12T12:43:11.732Z,18.20
2017-04-12T12:44:10.848Z,18.20
2017-04-12T12:45:09.884Z,18.20
2017-04-12T12:46:08.964Z,18.20
2017-04-12T12:47:08.136Z,18.10
2017-04-12T12:48:07.189Z,18.30
2017-04-12T12:49:05.499Z,18.20
2017-04-12T12:50:04.706Z,18.50
2017-04-12T12:51:03.072Z,18.40
2017-04-12T12:52:02.053Z,18.50
2017-04-12T12:53:01.159Z,18.50
2017-04-12T12:54:00.968Z,18.50
2017-04-12T12:55:00.029Z,18.50
2017-04-12T12:55:58.396Z,18.50
2017-04-12T12:56:58.263Z,18.50